DLH2X EDDM-EDDB
Flight info
| Callsign | DLH2X |
|---|---|
| Flight time | 0h 47m |
| Altitude | 29000 |
| Route | AKINI1S AKINI Y104 MAMOR L132 RUDNO T203 TIVDA DCT ETVIS DCT NAVEK DCT GAVLI/N0443F300 T203 ATGUP ATGUP1R |
| Aircraft | A321/M-SDE3FGHIRWY/LB1 |
Departure
| Time | 2026-05-04 19:40 |
|---|---|
| Airport | Munich Airport (EDDM) |
Arrival
| Time | 2026-05-04 20:28 |
|---|---|
| Airport | Berlin Brandenburg Airport (EDDB) |
| Time | Latitude | Longitude | Altitude | Speed | Heading |
|---|---|---|---|---|---|
| 2026-05-04 19:16 | 48.35728 | 11.79687 | 1458 ft | 0 kts | 82° |
| 2026-05-04 19:28 | 48.35728 | 11.79680 | 1467 ft | 3 kts | 82° |
| 2026-05-04 19:28 | 48.35725 | 11.79652 | 1460 ft | 3 kts | 82° |
| 2026-05-04 19:28 | 48.35723 | 11.79624 | 1467 ft | 3 kts | 82° |
| 2026-05-04 19:29 | 48.35720 | 11.79596 | 1464 ft | 3 kts | 82° |
| 2026-05-04 19:29 | 48.35719 | 11.79569 | 1463 ft | 2 kts | 64° |
| 2026-05-04 19:29 | 48.35708 | 11.79550 | 1456 ft | 2 kts | 9° |
| 2026-05-04 19:29 | 48.35701 | 11.79548 | 1456 ft | 0 kts | 356° |
| 2026-05-04 19:30 | 48.35706 | 11.79548 | 1456 ft | 2 kts | 355° |
| 2026-05-04 19:31 | 48.35729 | 11.79543 | 1463 ft | 5 kts | 351° |
| 2026-05-04 19:31 | 48.35773 | 11.79534 | 1466 ft | 7 kts | 353° |
| 2026-05-04 19:31 | 48.35831 | 11.79524 | 1467 ft | 9 kts | 353° |
| 2026-05-04 19:31 | 48.35901 | 11.79513 | 1459 ft | 10 kts | 356° |
| 2026-05-04 19:32 | 48.35933 | 11.79510 | 1465 ft | 6 kts | 355° |
| 2026-05-04 19:32 | 48.35982 | 11.79501 | 1462 ft | 7 kts | 353° |
| 2026-05-04 19:32 | 48.36004 | 11.79497 | 1462 ft | 0 kts | 353° |
| 2026-05-04 19:32 | 48.36005 | 11.79497 | 1462 ft | 0 kts | 353° |
| 2026-05-04 19:33 | 48.36013 | 11.79495 | 1458 ft | 2 kts | 353° |
| 2026-05-04 19:33 | 48.36040 | 11.79490 | 1464 ft | 9 kts | 353° |
| 2026-05-04 19:33 | 48.36112 | 11.79477 | 1468 ft | 11 kts | 353° |
| 2026-05-04 19:33 | 48.36193 | 11.79482 | 1462 ft | 12 kts | 34° |
| 2026-05-04 19:34 | 48.36222 | 11.79607 | 1459 ft | 14 kts | 82° |
| 2026-05-04 19:34 | 48.36237 | 11.79773 | 1462 ft | 17 kts | 82° |
| 2026-05-04 19:34 | 48.36252 | 11.79957 | 1464 ft | 18 kts | 84° |
| 2026-05-04 19:34 | 48.36266 | 11.80152 | 1463 ft | 19 kts | 84° |
| 2026-05-04 19:35 | 48.36281 | 11.80358 | 1459 ft | 20 kts | 84° |
| 2026-05-04 19:35 | 48.36298 | 11.80571 | 1463 ft | 21 kts | 81° |
| 2026-05-04 19:35 | 48.36317 | 11.80791 | 1465 ft | 22 kts | 83° |
| 2026-05-04 19:35 | 48.36335 | 11.81018 | 1467 ft | 22 kts | 83° |
| 2026-05-04 19:36 | 48.36351 | 11.81252 | 1467 ft | 23 kts | 84° |
| 2026-05-04 19:36 | 48.36369 | 11.81492 | 1461 ft | 23 kts | 83° |
| 2026-05-04 19:36 | 48.36387 | 11.81733 | 1466 ft | 23 kts | 83° |
| 2026-05-04 19:36 | 48.36401 | 11.81944 | 1466 ft | 16 kts | 77° |
| 2026-05-04 19:37 | 48.36485 | 11.82002 | 1459 ft | 10 kts | 353° |
| 2026-05-04 19:37 | 48.36526 | 11.81996 | 1466 ft | 7 kts | 354° |
| 2026-05-04 19:37 | 48.36545 | 11.81993 | 1461 ft | 0 kts | 354° |
| 2026-05-04 19:38 | 48.36552 | 11.81992 | 1463 ft | 2 kts | 354° |
| 2026-05-04 19:38 | 48.36576 | 11.81988 | 1466 ft | 5 kts | 354° |
| 2026-05-04 19:38 | 48.36626 | 11.81981 | 1466 ft | 10 kts | 354° |
| 2026-05-04 19:39 | 48.36674 | 11.81932 | 1462 ft | 6 kts | 269° |
| 2026-05-04 19:39 | 48.36674 | 11.81925 | 1462 ft | 1 kts | 263° |
| 2026-05-04 19:39 | 48.36673 | 11.81919 | 1467 ft | 2 kts | 263° |
| 2026-05-04 19:39 | 48.36659 | 11.81735 | 1466 ft | 49 kts | 263° |
| 2026-05-04 19:40 | 48.36593 | 11.80880 | 1461 ft | 114 kts | 263° |
| 2026-05-04 19:40 | 48.36482 | 11.79424 | 1467 ft | 164 kts | 263° |
| 2026-05-04 19:40 | 48.36338 | 11.77605 | 1902 ft | 170 kts | 264° |
| 2026-05-04 19:40 | 48.36200 | 11.75829 | 2612 ft | 173 kts | 264° |
| 2026-05-04 19:41 | 48.36056 | 11.73939 | 3025 ft | 193 kts | 263° |
| 2026-05-04 19:41 | 48.35895 | 11.71831 | 3287 ft | 214 kts | 263° |
| 2026-05-04 19:41 | 48.35829 | 11.69491 | 3462 ft | 235 kts | 279° |
| 2026-05-04 19:41 | 48.36486 | 11.67169 | 3723 ft | 251 kts | 310° |
| 2026-05-04 19:42 | 48.37869 | 11.65602 | 4404 ft | 252 kts | 340° |
| 2026-05-04 19:42 | 48.39580 | 11.64942 | 4948 ft | 263 kts | 349° |
| 2026-05-04 19:42 | 48.41440 | 11.64400 | 5356 ft | 277 kts | 349° |
| 2026-05-04 19:42 | 48.43347 | 11.63835 | 6052 ft | 281 kts | 349° |
| 2026-05-04 19:43 | 48.45312 | 11.63656 | 6734 ft | 286 kts | 5° |
| 2026-05-04 19:43 | 48.47257 | 11.64334 | 7397 ft | 291 kts | 22° |
| 2026-05-04 19:43 | 48.49011 | 11.65873 | 8057 ft | 295 kts | 40° |
| 2026-05-04 19:43 | 48.50418 | 11.68155 | 8677 ft | 300 kts | 54° |
| 2026-05-04 19:44 | 48.51730 | 11.70632 | 9305 ft | 306 kts | 42° |
| 2026-05-04 19:44 | 48.53454 | 11.72559 | 9932 ft | 311 kts | 32° |
| 2026-05-04 19:44 | 48.55296 | 11.74388 | 10254 ft | 328 kts | 32° |
| 2026-05-04 19:44 | 48.57266 | 11.76353 | 10394 ft | 350 kts | 33° |
| 2026-05-04 19:45 | 48.59354 | 11.78456 | 10501 ft | 371 kts | 33° |
| 2026-05-04 19:45 | 48.61548 | 11.80668 | 10734 ft | 385 kts | 33° |
| 2026-05-04 19:45 | 48.63788 | 11.82935 | 11248 ft | 390 kts | 34° |
| 2026-05-04 19:45 | 48.66046 | 11.85237 | 11823 ft | 394 kts | 34° |
| 2026-05-04 19:46 | 48.68325 | 11.87562 | 12390 ft | 397 kts | 34° |
| 2026-05-04 19:46 | 48.70628 | 11.89915 | 12942 ft | 401 kts | 34° |
| 2026-05-04 19:46 | 48.72922 | 11.92254 | 13504 ft | 405 kts | 34° |
| 2026-05-04 19:46 | 48.75268 | 11.94644 | 14022 ft | 408 kts | 34° |
| 2026-05-04 19:47 | 48.77629 | 11.97055 | 14571 ft | 411 kts | 34° |
| 2026-05-04 19:47 | 48.80006 | 11.99483 | 15094 ft | 413 kts | 34° |
| 2026-05-04 19:47 | 48.82395 | 12.01938 | 15630 ft | 416 kts | 34° |
| 2026-05-04 19:47 | 48.84793 | 12.04410 | 16152 ft | 418 kts | 34° |
| 2026-05-04 19:48 | 48.87213 | 12.06889 | 16671 ft | 421 kts | 34° |
| 2026-05-04 19:48 | 48.89649 | 12.09388 | 17198 ft | 424 kts | 33° |
| 2026-05-04 19:48 | 48.92101 | 12.11913 | 17709 ft | 427 kts | 34° |
| 2026-05-04 19:48 | 48.94567 | 12.14454 | 18228 ft | 430 kts | 33° |
| 2026-05-04 19:49 | 48.97059 | 12.17017 | 18672 ft | 433 kts | 33° |
| 2026-05-04 19:49 | 48.99555 | 12.19595 | 19114 ft | 436 kts | 34° |
| 2026-05-04 19:49 | 49.02072 | 12.22199 | 19546 ft | 438 kts | 33° |
| 2026-05-04 19:49 | 49.04603 | 12.24812 | 19978 ft | 441 kts | 34° |
| 2026-05-04 19:50 | 49.07138 | 12.27458 | 20415 ft | 443 kts | 34° |
| 2026-05-04 19:50 | 49.09691 | 12.30107 | 20835 ft | 446 kts | 33° |
| 2026-05-04 19:50 | 49.12262 | 12.32785 | 21210 ft | 449 kts | 33° |
| 2026-05-04 19:50 | 49.14850 | 12.35473 | 21600 ft | 451 kts | 33° |
| 2026-05-04 19:51 | 49.17449 | 12.38185 | 22000 ft | 453 kts | 34° |
| 2026-05-04 19:51 | 49.20057 | 12.40916 | 22399 ft | 456 kts | 33° |
| 2026-05-04 19:51 | 49.22682 | 12.43653 | 22801 ft | 458 kts | 34° |
| 2026-05-04 19:51 | 49.25314 | 12.46416 | 23178 ft | 460 kts | 33° |
| 2026-05-04 19:52 | 49.27966 | 12.49179 | 23546 ft | 463 kts | 33° |
| 2026-05-04 19:52 | 49.30629 | 12.51964 | 23872 ft | 465 kts | 33° |
| 2026-05-04 19:52 | 49.33301 | 12.54781 | 24179 ft | 467 kts | 33° |
| 2026-05-04 19:52 | 49.36027 | 12.57500 | 24513 ft | 467 kts | 26° |
| 2026-05-04 19:53 | 49.39034 | 12.59336 | 24835 ft | 466 kts | 15° |
| 2026-05-04 19:53 | 49.42141 | 12.60786 | 25139 ft | 468 kts | 15° |
| 2026-05-04 19:53 | 49.45259 | 12.62250 | 25446 ft | 470 kts | 15° |
| 2026-05-04 19:53 | 49.48387 | 12.63748 | 25756 ft | 472 kts | 15° |
| 2026-05-04 19:54 | 49.51527 | 12.65265 | 26052 ft | 473 kts | 15° |
| 2026-05-04 19:54 | 49.54668 | 12.66778 | 26340 ft | 475 kts | 15° |
| 2026-05-04 19:54 | 49.57830 | 12.68288 | 26619 ft | 476 kts | 15° |
| 2026-05-04 19:54 | 49.61006 | 12.69804 | 26884 ft | 478 kts | 15° |
| 2026-05-04 19:55 | 49.64189 | 12.71332 | 27146 ft | 480 kts | 15° |
| 2026-05-04 19:55 | 49.67380 | 12.72876 | 27439 ft | 480 kts | 15° |
| 2026-05-04 19:55 | 49.70560 | 12.74406 | 27819 ft | 479 kts | 15° |
| 2026-05-04 19:55 | 49.73741 | 12.75937 | 28213 ft | 477 kts | 15° |
| 2026-05-04 19:56 | 49.76897 | 12.77466 | 28617 ft | 475 kts | 15° |
| 2026-05-04 19:56 | 49.80034 | 12.79001 | 28909 ft | 469 kts | 15° |
| 2026-05-04 19:56 | 49.83132 | 12.80517 | 28956 ft | 465 kts | 15° |
| 2026-05-04 19:57 | 49.89294 | 12.83502 | 28956 ft | 463 kts | 15° |
| 2026-05-04 19:57 | 49.95437 | 12.86524 | 28968 ft | 462 kts | 15° |
| 2026-05-04 19:58 | 50.01568 | 12.89528 | 28970 ft | 462 kts | 15° |
| 2026-05-04 19:58 | 50.07695 | 12.92528 | 28973 ft | 462 kts | 15° |
| 2026-05-04 19:59 | 50.13781 | 12.95514 | 28975 ft | 462 kts | 15° |
| 2026-05-04 19:59 | 50.19908 | 12.98560 | 28979 ft | 462 kts | 15° |
| 2026-05-04 20:00 | 50.26046 | 13.01590 | 28968 ft | 463 kts | 15° |
| 2026-05-04 20:00 | 50.32193 | 13.04629 | 28969 ft | 463 kts | 15° |
| 2026-05-04 20:01 | 50.38337 | 13.07695 | 28972 ft | 463 kts | 15° |
| 2026-05-04 20:01 | 50.44480 | 13.10759 | 28974 ft | 463 kts | 15° |
| 2026-05-04 20:02 | 50.50606 | 13.13923 | 28974 ft | 465 kts | 20° |
| 2026-05-04 20:02 | 50.56417 | 13.18455 | 28979 ft | 467 kts | 25° |
| 2026-05-04 20:03 | 50.62204 | 13.23120 | 28980 ft | 468 kts | 25° |
| 2026-05-04 20:03 | 50.68006 | 13.27793 | 28969 ft | 469 kts | 25° |
| 2026-05-04 20:04 | 50.73808 | 13.32494 | 28967 ft | 469 kts | 25° |
| 2026-05-04 20:04 | 50.79620 | 13.37199 | 28974 ft | 469 kts | 25° |
| 2026-05-04 20:05 | 50.85438 | 13.41921 | 28970 ft | 471 kts | 25° |
| 2026-05-04 20:05 | 50.91270 | 13.46659 | 28966 ft | 471 kts | 22° |
| 2026-05-04 20:06 | 50.97466 | 13.49662 | 28967 ft | 464 kts | 6° |
| 2026-05-04 20:06 | 51.03848 | 13.51303 | 28983 ft | 465 kts | 6° |
| 2026-05-04 20:07 | 51.10227 | 13.53004 | 28683 ft | 464 kts | 6° |
| 2026-05-04 20:07 | 51.13420 | 13.53869 | 27637 ft | 468 kts | 7° |
| 2026-05-04 20:07 | 51.16632 | 13.54753 | 26834 ft | 468 kts | 7° |
| 2026-05-04 20:07 | 51.19839 | 13.55620 | 26002 ft | 468 kts | 7° |
| 2026-05-04 20:08 | 51.23017 | 13.56479 | 25127 ft | 470 kts | 7° |
| 2026-05-04 20:08 | 51.26225 | 13.57348 | 24501 ft | 466 kts | 7° |
| 2026-05-04 20:08 | 51.29403 | 13.58211 | 23882 ft | 461 kts | 7° |
| 2026-05-04 20:08 | 51.32557 | 13.59081 | 23189 ft | 458 kts | 7° |
| 2026-05-04 20:09 | 51.35683 | 13.59926 | 22537 ft | 453 kts | 7° |
| 2026-05-04 20:09 | 51.38809 | 13.60771 | 21912 ft | 447 kts | 7° |
| 2026-05-04 20:09 | 51.41852 | 13.61604 | 21280 ft | 442 kts | 7° |
| 2026-05-04 20:09 | 51.44826 | 13.62420 | 20661 ft | 437 kts | 7° |
| 2026-05-04 20:10 | 51.47811 | 13.63242 | 20031 ft | 434 kts | 7° |
| 2026-05-04 20:10 | 51.50781 | 13.64066 | 19417 ft | 432 kts | 7° |
| 2026-05-04 20:10 | 51.53738 | 13.64872 | 18786 ft | 430 kts | 7° |
| 2026-05-04 20:10 | 51.56680 | 13.65680 | 18147 ft | 428 kts | 8° |
| 2026-05-04 20:11 | 51.59589 | 13.66699 | 17461 ft | 427 kts | 11° |
| 2026-05-04 20:11 | 51.62469 | 13.67786 | 16849 ft | 424 kts | 11° |
| 2026-05-04 20:11 | 51.65330 | 13.68845 | 16222 ft | 421 kts | 11° |
| 2026-05-04 20:11 | 51.68178 | 13.69896 | 15599 ft | 418 kts | 11° |
| 2026-05-04 20:12 | 51.71004 | 13.70929 | 14978 ft | 415 kts | 11° |
| 2026-05-04 20:12 | 51.73808 | 13.71960 | 14368 ft | 412 kts | 10° |
| 2026-05-04 20:12 | 51.76597 | 13.72982 | 13745 ft | 409 kts | 10° |
| 2026-05-04 20:12 | 51.79359 | 13.73990 | 13075 ft | 406 kts | 11° |
| 2026-05-04 20:13 | 51.82093 | 13.75010 | 12480 ft | 401 kts | 11° |
| 2026-05-04 20:13 | 51.84792 | 13.76000 | 11875 ft | 395 kts | 10° |
| 2026-05-04 20:13 | 51.87457 | 13.76980 | 11281 ft | 390 kts | 11° |
| 2026-05-04 20:13 | 51.90103 | 13.77763 | 10750 ft | 382 kts | 2° |
| 2026-05-04 20:14 | 51.92684 | 13.77696 | 10645 ft | 360 kts | 351° |
| 2026-05-04 20:14 | 51.95066 | 13.76894 | 10515 ft | 342 kts | 339° |
| 2026-05-04 20:14 | 51.97240 | 13.75540 | 10377 ft | 327 kts | 334° |
| 2026-05-04 20:14 | 51.99296 | 13.74133 | 10232 ft | 315 kts | 334° |
| 2026-05-04 20:15 | 52.01277 | 13.72769 | 10105 ft | 304 kts | 333° |
| 2026-05-04 20:15 | 52.03188 | 13.71456 | 9949 ft | 294 kts | 334° |
| 2026-05-04 20:15 | 52.04974 | 13.69923 | 9577 ft | 288 kts | 321° |
| 2026-05-04 20:15 | 52.06505 | 13.67858 | 9206 ft | 284 kts | 315° |
| 2026-05-04 20:16 | 52.07973 | 13.65722 | 8851 ft | 282 kts | 313° |
| 2026-05-04 20:16 | 52.09191 | 13.63287 | 8495 ft | 276 kts | 297° |
| 2026-05-04 20:16 | 52.09945 | 13.60464 | 8154 ft | 271 kts | 283° |
| 2026-05-04 20:16 | 52.10268 | 13.57510 | 7808 ft | 268 kts | 275° |
| 2026-05-04 20:17 | 52.10496 | 13.54473 | 7466 ft | 266 kts | 275° |
| 2026-05-04 20:17 | 52.10715 | 13.51529 | 7126 ft | 266 kts | 275° |
| 2026-05-04 20:17 | 52.10935 | 13.48551 | 6795 ft | 265 kts | 275° |
| 2026-05-04 20:17 | 52.11154 | 13.45579 | 6460 ft | 264 kts | 275° |
| 2026-05-04 20:18 | 52.11375 | 13.42612 | 6113 ft | 264 kts | 275° |
| 2026-05-04 20:18 | 52.11596 | 13.39644 | 5969 ft | 261 kts | 275° |
| 2026-05-04 20:18 | 52.11816 | 13.36797 | 5958 ft | 247 kts | 278° |
| 2026-05-04 20:18 | 52.12334 | 13.34179 | 5956 ft | 244 kts | 296° |
| 2026-05-04 20:19 | 52.13282 | 13.31885 | 5962 ft | 245 kts | 305° |
| 2026-05-04 20:19 | 52.14298 | 13.29701 | 5955 ft | 236 kts | 305° |
| 2026-05-04 20:19 | 52.15270 | 13.27616 | 5951 ft | 229 kts | 304° |
| 2026-05-04 20:19 | 52.16228 | 13.25549 | 5951 ft | 227 kts | 304° |
| 2026-05-04 20:20 | 52.16857 | 13.24193 | 5770 ft | 225 kts | 305° |
| 2026-05-04 20:20 | 52.17784 | 13.22136 | 5385 ft | 225 kts | 299° |
| 2026-05-04 20:20 | 52.18361 | 13.19805 | 5031 ft | 221 kts | 280° |
| 2026-05-04 20:20 | 52.18408 | 13.17327 | 4662 ft | 220 kts | 260° |
| 2026-05-04 20:21 | 52.17975 | 13.14954 | 4269 ft | 219 kts | 248° |
| 2026-05-04 20:21 | 52.17537 | 13.12586 | 3886 ft | 219 kts | 265° |
| 2026-05-04 20:21 | 52.18721 | 13.08255 | 3173 ft | 218 kts | 324° |
| 2026-05-04 20:22 | 52.20121 | 13.07357 | 3028 ft | 220 kts | 354° |
| 2026-05-04 20:22 | 52.21626 | 13.07675 | 3020 ft | 222 kts | 23° |
| 2026-05-04 20:22 | 52.22903 | 13.09077 | 3018 ft | 222 kts | 40° |
| 2026-05-04 20:22 | 52.24079 | 13.10711 | 3012 ft | 222 kts | 40° |
| 2026-05-04 20:23 | 52.25255 | 13.12345 | 3009 ft | 222 kts | 40° |
| 2026-05-04 20:23 | 52.26390 | 13.14051 | 3016 ft | 221 kts | 50° |
| 2026-05-04 20:23 | 52.27181 | 13.16074 | 3010 ft | 203 kts | 66° |
| 2026-05-04 20:23 | 52.27694 | 13.18166 | 3035 ft | 196 kts | 69° |
| 2026-05-04 20:24 | 52.28172 | 13.20233 | 3027 ft | 193 kts | 69° |
| 2026-05-04 20:24 | 52.28656 | 13.22274 | 3031 ft | 192 kts | 68° |
| 2026-05-04 20:24 | 52.29144 | 13.24303 | 2985 ft | 192 kts | 68° |
| 2026-05-04 20:24 | 52.29633 | 13.26330 | 2788 ft | 191 kts | 68° |
| 2026-05-04 20:25 | 52.30114 | 13.28331 | 2540 ft | 188 kts | 68° |
| 2026-05-04 20:25 | 52.30585 | 13.30295 | 2315 ft | 183 kts | 67° |
| 2026-05-04 20:25 | 52.31029 | 13.32149 | 2071 ft | 167 kts | 67° |
| 2026-05-04 20:25 | 52.31429 | 13.33818 | 1851 ft | 155 kts | 67° |
| 2026-05-04 20:26 | 52.31820 | 13.35449 | 1652 ft | 150 kts | 67° |
| 2026-05-04 20:26 | 52.32193 | 13.37003 | 1458 ft | 148 kts | 66° |
| 2026-05-04 20:26 | 52.32568 | 13.38572 | 1265 ft | 148 kts | 67° |
| 2026-05-04 20:26 | 52.32941 | 13.40129 | 1064 ft | 147 kts | 67° |
| 2026-05-04 20:27 | 52.33311 | 13.41681 | 864 ft | 147 kts | 67° |
| 2026-05-04 20:27 | 52.33682 | 13.43232 | 666 ft | 146 kts | 67° |
| 2026-05-04 20:27 | 52.34048 | 13.44781 | 466 ft | 146 kts | 68° |
| 2026-05-04 20:27 | 52.34422 | 13.46321 | 297 ft | 145 kts | 68° |
| 2026-05-04 20:28 | 52.34781 | 13.47842 | 156 ft | 133 kts | 68° |
| 2026-05-04 20:28 | 52.35071 | 13.49065 | 154 ft | 91 kts | 68° |
| 2026-05-04 20:28 | 52.35253 | 13.49802 | 154 ft | 36 kts | 60° |
| 2026-05-04 20:28 | 52.35425 | 13.50060 | 155 ft | 31 kts | 38° |
| 2026-05-04 20:29 | 52.35556 | 13.50230 | 154 ft | 21 kts | 38° |
| 2026-05-04 20:29 | 52.35627 | 13.50417 | 154 ft | 17 kts | 68° |
| 2026-05-04 20:29 | 52.35671 | 13.50598 | 154 ft | 17 kts | 70° |
| 2026-05-04 20:29 | 52.35762 | 13.50674 | 154 ft | 18 kts | 344° |
| 2026-05-04 20:30 | 52.35869 | 13.50606 | 154 ft | 17 kts | 338° |
| 2026-05-04 20:30 | 52.35985 | 13.50561 | 154 ft | 18 kts | 7° |
| 2026-05-04 20:30 | 52.36073 | 13.50697 | 154 ft | 17 kts | 68° |
| 2026-05-04 20:30 | 52.36090 | 13.50772 | 154 ft | 4 kts | 69° |
| 2026-05-04 20:31 | 52.36092 | 13.50778 | 154 ft | 0 kts | 69° |